sensor_id;sensor_type;location;lat;lon;timestamp;P1;durP1;ratioP1;P2;durP2;ratioP2
10120;SDS011;5100;45.176;5.714;2022-11-06T00:00:40;7.47;;;6.03;;
10120;SDS011;5100;45.176;5.714;2022-11-06T00:03:06;7.80;;;6.50;;
10120;SDS011;5100;45.176;5.714;2022-11-06T00:05:33;8.80;;;7.27;;
10120;SDS011;5100;45.176;5.714;2022-11-06T00:08:28;9.83;;;7.57;;
10120;SDS011;5100;45.176;5.714;2022-11-06T00:10:56;11.37;;;7.87;;
10120;SDS011;5100;45.176;5.714;2022-11-06T00:13:23;12.43;;;8.70;;
10120;SDS011;5100;45.176;5.714;2022-11-06T00:15:49;9.67;;;7.30;;
10120;SDS011;5100;45.176;5.714;2022-11-06T00:18:15;9.50;;;7.37;;
10120;SDS011;5100;45.176;5.714;2022-11-06T00:20:42;9.43;;;7.23;;
10120;SDS011;5100;45.176;5.714;2022-11-06T00:23:07;10.00;;;7.43;;
10120;SDS011;5100;45.176;5.714;2022-11-06T00:25:34;8.07;;;7.17;;
10120;SDS011;5100;45.176;5.714;2022-11-06T00:28:04;7.97;;;6.83;;
10120;SDS011;5100;45.176;5.714;2022-11-06T00:30:29;8.80;;;6.80;;
10120;SDS011;5100;45.176;5.714;2022-11-06T00:32:56;9.63;;;7.70;;
10120;SDS011;5100;45.176;5.714;2022-11-06T00:35:23;8.83;;;7.07;;
10120;SDS011;5100;45.176;5.714;2022-11-06T00:37:49;8.10;;;6.37;;
10120;SDS011;5100;45.176;5.714;2022-11-06T00:40:14;7.70;;;6.87;;
10120;SDS011;5100;45.176;5.714;2022-11-06T00:42:41;8.50;;;6.63;;
10120;SDS011;5100;45.176;5.714;2022-11-06T00:45:07;6.60;;;6.00;;
10120;SDS011;5100;45.176;5.714;2022-11-06T00:47:33;6.87;;;6.27;;
10120;SDS011;5100;45.176;5.714;2022-11-06T00:50:00;6.83;;;6.10;;
10120;SDS011;5100;45.176;5.714;2022-11-06T00:52:27;6.17;;;5.10;;
10120;SDS011;5100;45.176;5.714;2022-11-06T00:54:54;6.60;;;5.63;;
10120;SDS011;5100;45.176;5.714;2022-11-06T00:57:20;8.17;;;6.00;;
10120;SDS011;5100;45.176;5.714;2022-11-06T00:59:46;8.23;;;6.13;;
10120;SDS011;5100;45.176;5.714;2022-11-06T01:02:12;8.63;;;5.90;;
10120;SDS011;5100;45.176;5.714;2022-11-06T01:04:38;6.50;;;5.47;;
10120;SDS011;5100;45.176;5.714;2022-11-06T01:07:04;6.83;;;5.20;;
10120;SDS011;5100;45.176;5.714;2022-11-06T01:09:30;8.83;;;7.27;;
10120;SDS011;5100;45.176;5.714;2022-11-06T01:11:57;7.03;;;6.33;;
10120;SDS011;5100;45.176;5.714;2022-11-06T01:14:24;8.63;;;7.00;;
10120;SDS011;5100;45.176;5.714;2022-11-06T01:16:50;7.30;;;6.60;;
10120;SDS011;5100;45.176;5.714;2022-11-06T01:19:17;9.37;;;6.87;;
10120;SDS011;5100;45.176;5.714;2022-11-06T01:21:46;9.30;;;6.90;;
10120;SDS011;5100;45.176;5.714;2022-11-06T01:24:14;10.70;;;7.07;;
10120;SDS011;5100;45.176;5.714;2022-11-06T01:26:42;7.47;;;6.70;;
10120;SDS011;5100;45.176;5.714;2022-11-06T01:29:13;7.47;;;6.73;;
10120;SDS011;5100;45.176;5.714;2022-11-06T01:31:40;7.67;;;6.60;;
10120;SDS011;5100;45.176;5.714;2022-11-06T01:34:06;8.20;;;7.40;;
10120;SDS011;5100;45.176;5.714;2022-11-06T01:36:33;7.33;;;6.63;;
10120;SDS011;5100;45.176;5.714;2022-11-06T01:39:04;7.83;;;7.03;;
10120;SDS011;5100;45.176;5.714;2022-11-06T01:41:33;7.17;;;6.43;;
10120;SDS011;5100;45.176;5.714;2022-11-06T01:47:24;7.03;;;6.27;;
10120;SDS011;5100;45.176;5.714;2022-11-06T01:49:52;8.07;;;6.43;;
10120;SDS011;5100;45.176;5.714;2022-11-06T01:52:21;7.97;;;6.47;;
10120;SDS011;5100;45.176;5.714;2022-11-06T01:54:50;8.73;;;6.77;;
10120;SDS011;5100;45.176;5.714;2022-11-06T01:57:19;8.70;;;6.43;;
10120;SDS011;5100;45.176;5.714;2022-11-06T01:59:46;6.83;;;5.70;;
10120;SDS011;5100;45.176;5.714;2022-11-06T02:02:14;7.10;;;6.40;;
10120;SDS011;5100;45.176;5.714;2022-11-06T02:04:43;7.30;;;6.13;;
10120;SDS011;5100;45.176;5.714;2022-11-06T02:07:10;8.60;;;6.67;;
10120;SDS011;5100;45.176;5.714;2022-11-06T02:09:37;6.97;;;6.37;;
10120;SDS011;5100;45.176;5.714;2022-11-06T02:15:00;7.47;;;6.63;;
10120;SDS011;5100;45.176;5.714;2022-11-06T02:17:43;6.80;;;5.83;;
10120;SDS011;5100;45.176;5.714;2022-11-06T02:20:25;7.00;;;6.27;;
10120;SDS011;5100;45.176;5.714;2022-11-06T02:30:53;8.67;;;5.67;;
10120;SDS011;5100;45.176;5.714;2022-11-06T02:33:26;5.67;;;5.10;;
10120;SDS011;5100;45.176;5.714;2022-11-06T02:36:08;5.70;;;5.20;;
10120;SDS011;5100;45.176;5.714;2022-11-06T02:38:40;6.33;;;5.73;;
10120;SDS011;5100;45.176;5.714;2022-11-06T02:41:21;5.70;;;5.20;;
10120;SDS011;5100;45.176;5.714;2022-11-06T02:44:00;8.13;;;5.93;;
10120;SDS011;5100;45.176;5.714;2022-11-06T02:46:33;6.43;;;5.67;;
10120;SDS011;5100;45.176;5.714;2022-11-06T02:49:47;6.67;;;5.50;;
10120;SDS011;5100;45.176;5.714;2022-11-06T02:52:22;6.03;;;5.50;;
10120;SDS011;5100;45.176;5.714;2022-11-06T02:54:54;6.17;;;5.43;;
10120;SDS011;5100;45.176;5.714;2022-11-06T02:57:49;10.20;;;6.00;;
10120;SDS011;5100;45.176;5.714;2022-11-06T03:00:19;6.87;;;5.63;;
10120;SDS011;5100;45.176;5.714;2022-11-06T03:02:55;7.93;;;6.30;;
10120;SDS011;5100;45.176;5.714;2022-11-06T03:05:28;6.40;;;5.50;;
10120;SDS011;5100;45.176;5.714;2022-11-06T03:07:57;8.23;;;5.73;;
10120;SDS011;5100;45.176;5.714;2022-11-06T03:10:31;6.33;;;5.50;;
10120;SDS011;5100;45.176;5.714;2022-11-06T03:13:23;8.17;;;5.60;;
10120;SDS011;5100;45.176;5.714;2022-11-06T03:15:58;6.73;;;6.07;;
10120;SDS011;5100;45.176;5.714;2022-11-06T03:18:37;7.10;;;6.33;;
10120;SDS011;5100;45.176;5.714;2022-11-06T03:21:35;6.33;;;5.43;;
10120;SDS011;5100;45.176;5.714;2022-11-06T03:24:24;8.73;;;6.17;;
10120;SDS011;5100;45.176;5.714;2022-11-06T03:26:54;6.63;;;5.83;;
10120;SDS011;5100;45.176;5.714;2022-11-06T03:29:31;8.43;;;6.03;;
10120;SDS011;5100;45.176;5.714;2022-11-06T03:32:14;6.23;;;5.60;;
10120;SDS011;5100;45.176;5.714;2022-11-06T03:34:52;7.90;;;5.70;;
10120;SDS011;5100;45.176;5.714;2022-11-06T03:37:29;6.43;;;5.80;;
10120;SDS011;5100;45.176;5.714;2022-11-06T03:40:02;6.87;;;6.10;;
10120;SDS011;5100;45.176;5.714;2022-11-06T03:42:33;6.87;;;6.17;;
10120;SDS011;5100;45.176;5.714;2022-11-06T03:45:02;6.83;;;6.13;;
10120;SDS011;5100;45.176;5.714;2022-11-06T03:47:41;7.23;;;6.40;;
10120;SDS011;5100;45.176;5.714;2022-11-06T03:50:25;8.17;;;6.37;;
10120;SDS011;5100;45.176;5.714;2022-11-06T03:53:39;8.50;;;6.03;;
10120;SDS011;5100;45.176;5.714;2022-11-06T03:55:54;6.13;;;5.53;;
10120;SDS011;5100;45.176;5.714;2022-11-06T03:58:30;7.50;;;5.50;;
10120;SDS011;5100;45.176;5.714;2022-11-06T04:01:02;6.53;;;5.50;;
10120;SDS011;5100;45.176;5.714;2022-11-06T04:03:32;8.30;;;5.60;;
10120;SDS011;5100;45.176;5.714;2022-11-06T04:08:43;5.93;;;5.43;;
10120;SDS011;5100;45.176;5.714;2022-11-06T04:11:29;6.00;;;5.40;;
10120;SDS011;5100;45.176;5.714;2022-11-06T04:14:19;7.90;;;5.47;;
10120;SDS011;5100;45.176;5.714;2022-11-06T04:16:47;7.10;;;6.07;;
10120;SDS011;5100;45.176;5.714;2022-11-06T04:19:19;7.53;;;6.07;;
10120;SDS011;5100;45.176;5.714;2022-11-06T04:28:24;7.87;;;5.53;;
10120;SDS011;5100;45.176;5.714;2022-11-06T04:31:14;6.10;;;5.17;;
10120;SDS011;5100;45.176;5.714;2022-11-06T04:33:47;9.10;;;5.23;;
10120;SDS011;5100;45.176;5.714;2022-11-06T04:41:24;6.93;;;5.13;;
10120;SDS011;5100;45.176;5.714;2022-11-06T04:44:15;6.97;;;5.70;;
10120;SDS011;5100;45.176;5.714;2022-11-06T04:46:55;7.70;;;5.60;;
10120;SDS011;5100;45.176;5.714;2022-11-06T04:49:30;5.83;;;5.30;;
10120;SDS011;5100;45.176;5.714;2022-11-06T04:51:59;7.30;;;5.60;;
10120;SDS011;5100;45.176;5.714;2022-11-06T04:54:30;7.33;;;5.50;;
10120;SDS011;5100;45.176;5.714;2022-11-06T04:57:01;7.87;;;5.67;;
10120;SDS011;5100;45.176;5.714;2022-11-06T04:59:27;7.57;;;5.63;;
10120;SDS011;5100;45.176;5.714;2022-11-06T05:01:55;6.20;;;5.13;;
10120;SDS011;5100;45.176;5.714;2022-11-06T05:04:21;6.33;;;5.63;;
10120;SDS011;5100;45.176;5.714;2022-11-06T05:06:47;5.47;;;4.90;;
10120;SDS011;5100;45.176;5.714;2022-11-06T05:09:13;6.20;;;5.27;;
10120;SDS011;5100;45.176;5.714;2022-11-06T05:11:39;6.83;;;5.40;;
10120;SDS011;5100;45.176;5.714;2022-11-06T05:14:05;6.07;;;4.97;;
10120;SDS011;5100;45.176;5.714;2022-11-06T05:16:32;6.40;;;5.03;;
10120;SDS011;5100;45.176;5.714;2022-11-06T05:18:57;5.87;;;5.17;;
10120;SDS011;5100;45.176;5.714;2022-11-06T05:21:23;5.83;;;5.33;;
10120;SDS011;5100;45.176;5.714;2022-11-06T05:24:08;6.43;;;4.97;;
10120;SDS011;5100;45.176;5.714;2022-11-06T05:26:34;7.23;;;5.47;;
10120;SDS011;5100;45.176;5.714;2022-11-06T05:29:00;6.07;;;5.57;;
10120;SDS011;5100;45.176;5.714;2022-11-06T05:31:26;5.87;;;5.17;;
10120;SDS011;5100;45.176;5.714;2022-11-06T05:33:53;5.97;;;5.30;;
10120;SDS011;5100;45.176;5.714;2022-11-06T05:36:19;7.83;;;5.60;;
10120;SDS011;5100;45.176;5.714;2022-11-06T05:38:45;6.83;;;5.70;;
10120;SDS011;5100;45.176;5.714;2022-11-06T05:41:11;6.43;;;5.73;;
10120;SDS011;5100;45.176;5.714;2022-11-06T05:43:36;5.97;;;5.33;;
10120;SDS011;5100;45.176;5.714;2022-11-06T05:46:03;6.23;;;5.63;;
10120;SDS011;5100;45.176;5.714;2022-11-06T05:48:29;6.50;;;5.50;;
10120;SDS011;5100;45.176;5.714;2022-11-06T05:51:02;6.23;;;5.50;;
10120;SDS011;5100;45.176;5.714;2022-11-06T05:53:29;5.50;;;5.00;;
10120;SDS011;5100;45.176;5.714;2022-11-06T05:55:56;5.10;;;4.60;;
10120;SDS011;5100;45.176;5.714;2022-11-06T05:58:22;5.13;;;4.60;;
10120;SDS011;5100;45.176;5.714;2022-11-06T06:00:49;4.77;;;4.37;;
10120;SDS011;5100;45.176;5.714;2022-11-06T06:03:16;5.77;;;4.87;;
10120;SDS011;5100;45.176;5.714;2022-11-06T06:05:42;5.17;;;4.67;;
10120;SDS011;5100;45.176;5.714;2022-11-06T06:08:08;7.97;;;5.10;;
10120;SDS011;5100;45.176;5.714;2022-11-06T06:10:34;5.13;;;4.47;;
10120;SDS011;5100;45.176;5.714;2022-11-06T06:13:04;5.73;;;4.93;;
10120;SDS011;5100;45.176;5.714;2022-11-06T06:15:30;5.57;;;5.00;;
10120;SDS011;5100;45.176;5.714;2022-11-06T06:17:56;5.60;;;5.10;;
10120;SDS011;5100;45.176;5.714;2022-11-06T06:20:22;6.03;;;5.43;;
10120;SDS011;5100;45.176;5.714;2022-11-06T06:22:52;5.37;;;4.87;;
10120;SDS011;5100;45.176;5.714;2022-11-06T06:25:19;6.53;;;4.67;;
10120;SDS011;5100;45.176;5.714;2022-11-06T06:27:45;5.30;;;4.90;;
10120;SDS011;5100;45.176;5.714;2022-11-06T06:30:11;5.23;;;4.83;;
10120;SDS011;5100;45.176;5.714;2022-11-06T06:32:38;6.20;;;4.93;;
10120;SDS011;5100;45.176;5.714;2022-11-06T06:35:04;6.10;;;5.03;;
10120;SDS011;5100;45.176;5.714;2022-11-06T06:37:30;6.33;;;4.83;;
10120;SDS011;5100;45.176;5.714;2022-11-06T06:39:56;5.17;;;4.67;;
10120;SDS011;5100;45.176;5.714;2022-11-06T06:42:22;5.10;;;4.60;;
10120;SDS011;5100;45.176;5.714;2022-11-06T06:44:48;5.27;;;4.77;;
10120;SDS011;5100;45.176;5.714;2022-11-06T06:47:15;5.13;;;4.60;;
10120;SDS011;5100;45.176;5.714;2022-11-06T06:49:42;5.27;;;4.77;;
10120;SDS011;5100;45.176;5.714;2022-11-06T06:52:09;5.17;;;4.70;;
10120;SDS011;5100;45.176;5.714;2022-11-06T06:54:35;5.57;;;4.90;;
10120;SDS011;5100;45.176;5.714;2022-11-06T06:57:02;5.67;;;5.07;;
10120;SDS011;5100;45.176;5.714;2022-11-06T06:59:28;7.50;;;6.73;;
10120;SDS011;5100;45.176;5.714;2022-11-06T07:01:55;7.30;;;5.90;;
10120;SDS011;5100;45.176;5.714;2022-11-06T07:04:22;5.60;;;5.03;;
10120;SDS011;5100;45.176;5.714;2022-11-06T07:06:48;4.77;;;4.37;;
10120;SDS011;5100;45.176;5.714;2022-11-06T07:09:14;5.60;;;5.13;;
10120;SDS011;5100;45.176;5.714;2022-11-06T07:11:40;6.80;;;5.40;;
10120;SDS011;5100;45.176;5.714;2022-11-06T07:14:06;8.37;;;5.23;;
10120;SDS011;5100;45.176;5.714;2022-11-06T07:16:36;6.28;;;5.07;;
10120;SDS011;5100;45.176;5.714;2022-11-06T07:19:02;5.60;;;5.20;;
10120;SDS011;5100;45.176;5.714;2022-11-06T07:21:28;6.07;;;5.50;;
10120;SDS011;5100;45.176;5.714;2022-11-06T07:23:54;9.40;;;5.90;;
10120;SDS011;5100;45.176;5.714;2022-11-06T07:26:20;6.43;;;5.83;;
10120;SDS011;5100;45.176;5.714;2022-11-06T07:28:46;6.20;;;5.60;;
10120;SDS011;5100;45.176;5.714;2022-11-06T07:31:13;6.10;;;5.60;;
10120;SDS011;5100;45.176;5.714;2022-11-06T07:33:39;5.87;;;5.37;;
10120;SDS011;5100;45.176;5.714;2022-11-06T07:36:09;4.87;;;4.47;;
10120;SDS011;5100;45.176;5.714;2022-11-06T07:38:37;4.97;;;4.57;;
10120;SDS011;5100;45.176;5.714;2022-11-06T07:41:06;4.87;;;4.37;;
10120;SDS011;5100;45.176;5.714;2022-11-06T07:43:34;5.07;;;4.57;;
10120;SDS011;5100;45.176;5.714;2022-11-06T07:46:02;5.23;;;4.17;;
10120;SDS011;5100;45.176;5.714;2022-11-06T07:48:30;4.87;;;4.43;;
10120;SDS011;5100;45.176;5.714;2022-11-06T07:50:57;4.40;;;4.00;;
10120;SDS011;5100;45.176;5.714;2022-11-06T07:53:26;4.57;;;4.17;;
10120;SDS011;5100;45.176;5.714;2022-11-06T07:55:53;4.83;;;3.80;;
10120;SDS011;5100;45.176;5.714;2022-11-06T07:58:20;5.13;;;3.67;;
10120;SDS011;5100;45.176;5.714;2022-11-06T08:00:48;3.30;;;3.10;;
10120;SDS011;5100;45.176;5.714;2022-11-06T08:03:15;3.27;;;3.00;;
10120;SDS011;5100;45.176;5.714;2022-11-06T08:05:41;4.13;;;3.70;;
10120;SDS011;5100;45.176;5.714;2022-11-06T08:08:07;6.53;;;4.40;;
10120;SDS011;5100;45.176;5.714;2022-11-06T08:10:34;4.97;;;4.27;;
10120;SDS011;5100;45.176;5.714;2022-11-06T08:13:07;4.10;;;3.80;;
10120;SDS011;5100;45.176;5.714;2022-11-06T08:15:37;4.27;;;3.87;;
10120;SDS011;5100;45.176;5.714;2022-11-06T08:18:04;4.00;;;3.60;;
10120;SDS011;5100;45.176;5.714;2022-11-06T08:20:32;7.43;;;5.50;;
10120;SDS011;5100;45.176;5.714;2022-11-06T08:23:00;4.63;;;4.27;;
10120;SDS011;5100;45.176;5.714;2022-11-06T08:25:28;4.70;;;4.27;;
10120;SDS011;5100;45.176;5.714;2022-11-06T08:27:55;5.97;;;4.40;;
10120;SDS011;5100;45.176;5.714;2022-11-06T08:30:25;5.80;;;4.30;;
10120;SDS011;5100;45.176;5.714;2022-11-06T08:32:52;4.97;;;3.97;;
10120;SDS011;5100;45.176;5.714;2022-11-06T08:35:19;3.97;;;3.60;;
10120;SDS011;5100;45.176;5.714;2022-11-06T08:37:45;4.00;;;3.60;;
10120;SDS011;5100;45.176;5.714;2022-11-06T08:40:12;4.00;;;3.60;;
10120;SDS011;5100;45.176;5.714;2022-11-06T08:42:38;3.90;;;3.60;;
10120;SDS011;5100;45.176;5.714;2022-11-06T08:45:04;3.77;;;3.37;;
10120;SDS011;5100;45.176;5.714;2022-11-06T08:47:31;3.70;;;3.40;;
10120;SDS011;5100;45.176;5.714;2022-11-06T08:49:57;4.03;;;3.63;;
10120;SDS011;5100;45.176;5.714;2022-11-06T08:52:23;3.60;;;3.30;;
10120;SDS011;5100;45.176;5.714;2022-11-06T08:54:49;3.80;;;3.50;;
10120;SDS011;5100;45.176;5.714;2022-11-06T08:57:15;4.07;;;3.70;;
10120;SDS011;5100;45.176;5.714;2022-11-06T08:59:42;4.00;;;3.60;;
10120;SDS011;5100;45.176;5.714;2022-11-06T09:02:11;4.07;;;3.77;;
10120;SDS011;5100;45.176;5.714;2022-11-06T09:04:38;3.33;;;3.10;;
10120;SDS011;5100;45.176;5.714;2022-11-06T09:07:05;3.43;;;3.17;;
10120;SDS011;5100;45.176;5.714;2022-11-06T09:09:31;4.27;;;3.87;;
10120;SDS011;5100;45.176;5.714;2022-11-06T09:11:57;3.97;;;3.63;;
10120;SDS011;5100;45.176;5.714;2022-11-06T09:14:25;3.60;;;3.30;;
10120;SDS011;5100;45.176;5.714;2022-11-06T09:16:51;3.33;;;3.03;;
10120;SDS011;5100;45.176;5.714;2022-11-06T09:19:18;3.60;;;3.17;;
10120;SDS011;5100;45.176;5.714;2022-11-06T09:21:44;3.13;;;2.90;;
10120;SDS011;5100;45.176;5.714;2022-11-06T09:24:11;4.03;;;3.33;;
10120;SDS011;5100;45.176;5.714;2022-11-06T09:26:37;3.10;;;2.90;;
10120;SDS011;5100;45.176;5.714;2022-11-06T09:29:03;3.17;;;2.87;;
10120;SDS011;5100;45.176;5.714;2022-11-06T09:31:29;5.60;;;3.10;;
10120;SDS011;5100;45.176;5.714;2022-11-06T09:33:55;3.20;;;3.00;;
10120;SDS011;5100;45.176;5.714;2022-11-06T09:36:21;3.37;;;2.93;;
10120;SDS011;5100;45.176;5.714;2022-11-06T09:38:47;4.83;;;3.43;;
10120;SDS011;5100;45.176;5.714;2022-11-06T09:41:57;3.60;;;3.30;;
10120;SDS011;5100;45.176;5.714;2022-11-06T09:44:15;4.37;;;3.30;;
10120;SDS011;5100;45.176;5.714;2022-11-06T09:46:57;3.00;;;2.80;;
10120;SDS011;5100;45.176;5.714;2022-11-06T09:49:35;3.33;;;3.03;;
10120;SDS011;5100;45.176;5.714;2022-11-06T09:52:07;3.20;;;2.90;;
10120;SDS011;5100;45.176;5.714;2022-11-06T09:54:48;2.87;;;2.67;;
10120;SDS011;5100;45.176;5.714;2022-11-06T09:57:18;2.87;;;2.67;;
10120;SDS011;5100;45.176;5.714;2022-11-06T09:59:48;4.33;;;2.87;;
10120;SDS011;5100;45.176;5.714;2022-11-06T10:07:36;3.10;;;2.90;;
10120;SDS011;5100;45.176;5.714;2022-11-06T10:10:07;3.87;;;2.97;;
10120;SDS011;5100;45.176;5.714;2022-11-06T10:15:22;3.37;;;2.97;;
10120;SDS011;5100;45.176;5.714;2022-11-06T10:18:03;2.80;;;2.60;;
10120;SDS011;5100;45.176;5.714;2022-11-06T10:21:24;4.40;;;3.20;;
10120;SDS011;5100;45.176;5.714;2022-11-06T10:26:18;2.87;;;2.57;;
10120;SDS011;5100;45.176;5.714;2022-11-06T10:28:54;3.27;;;2.90;;
10120;SDS011;5100;45.176;5.714;2022-11-06T10:34:35;3.23;;;2.80;;
10120;SDS011;5100;45.176;5.714;2022-11-06T10:37:16;2.70;;;2.50;;
10120;SDS011;5100;45.176;5.714;2022-11-06T10:39:46;3.30;;;3.00;;
10120;SDS011;5100;45.176;5.714;2022-11-06T10:44:43;2.83;;;2.63;;
10120;SDS011;5100;45.176;5.714;2022-11-06T10:47:17;3.27;;;3.07;;
10120;SDS011;5100;45.176;5.714;2022-11-06T10:49:47;2.97;;;2.77;;
10120;SDS011;5100;45.176;5.714;2022-11-06T10:52:28;2.60;;;2.40;;
10120;SDS011;5100;45.176;5.714;2022-11-06T10:57:45;2.70;;;2.50;;
10120;SDS011;5100;45.176;5.714;2022-11-06T11:00:17;2.63;;;2.43;;
10120;SDS011;5100;45.176;5.714;2022-11-06T11:02:44;2.90;;;2.63;;
10120;SDS011;5100;45.176;5.714;2022-11-06T11:05:17;2.60;;;2.40;;
10120;SDS011;5100;45.176;5.714;2022-11-06T11:07:45;2.73;;;2.50;;
10120;SDS011;5100;45.176;5.714;2022-11-06T11:12:49;2.70;;;2.50;;
10120;SDS011;5100;45.176;5.714;2022-11-06T11:15:17;3.00;;;2.50;;
10120;SDS011;5100;45.176;5.714;2022-11-06T11:20:40;3.93;;;2.70;;
10120;SDS011;5100;45.176;5.714;2022-11-06T11:23:20;3.50;;;2.60;;
10120;SDS011;5100;45.176;5.714;2022-11-06T11:25:53;3.00;;;2.70;;
10120;SDS011;5100;45.176;5.714;2022-11-06T11:28:34;3.10;;;2.80;;
10120;SDS011;5100;45.176;5.714;2022-11-06T11:31:08;3.50;;;2.40;;
10120;SDS011;5100;45.176;5.714;2022-11-06T11:33:37;2.17;;;2.07;;
10120;SDS011;5100;45.176;5.714;2022-11-06T11:36:07;2.73;;;2.07;;
10120;SDS011;5100;45.176;5.714;2022-11-06T11:38:35;1.80;;;1.70;;
10120;SDS011;5100;45.176;5.714;2022-11-06T11:43:55;2.17;;;2.07;;
10120;SDS011;5100;45.176;5.714;2022-11-06T11:46:49;2.33;;;2.13;;
10120;SDS011;5100;45.176;5.714;2022-11-06T11:49:32;2.20;;;2.00;;
10120;SDS011;5100;45.176;5.714;2022-11-06T11:52:03;3.30;;;1.97;;
10120;SDS011;5100;45.176;5.714;2022-11-06T11:54:36;2.03;;;1.93;;
10120;SDS011;5100;45.176;5.714;2022-11-06T11:57:16;2.47;;;2.20;;
10120;SDS011;5100;45.176;5.714;2022-11-06T11:59:48;2.57;;;2.20;;
10120;SDS011;5100;45.176;5.714;2022-11-06T12:02:22;2.50;;;2.30;;
10120;SDS011;5100;45.176;5.714;2022-11-06T12:04:59;2.40;;;2.20;;
10120;SDS011;5100;45.176;5.714;2022-11-06T12:07:31;2.30;;;2.10;;
10120;SDS011;5100;45.176;5.714;2022-11-06T12:10:01;2.40;;;2.20;;
10120;SDS011;5100;45.176;5.714;2022-11-06T12:12:48;2.50;;;2.30;;
10120;SDS011;5100;45.176;5.714;2022-11-06T12:15:26;2.50;;;2.30;;
10120;SDS011;5100;45.176;5.714;2022-11-06T12:18:01;2.63;;;2.03;;
10120;SDS011;5100;45.176;5.714;2022-11-06T12:20:38;2.60;;;2.40;;
10120;SDS011;5100;45.176;5.714;2022-11-06T12:23:09;2.10;;;2.00;;
10120;SDS011;5100;45.176;5.714;2022-11-06T12:25:41;2.63;;;2.30;;
10120;SDS011;5100;45.176;5.714;2022-11-06T12:28:13;2.97;;;2.30;;
10120;SDS011;5100;45.176;5.714;2022-11-06T12:30:42;2.30;;;2.10;;
10120;SDS011;5100;45.176;5.714;2022-11-06T12:33:15;2.77;;;2.37;;
10120;SDS011;5100;45.176;5.714;2022-11-06T12:40:48;2.80;;;2.50;;
10120;SDS011;5100;45.176;5.714;2022-11-06T12:49:19;2.63;;;2.43;;
10120;SDS011;5100;45.176;5.714;2022-11-06T12:52:22;3.17;;;2.87;;
10120;SDS011;5100;45.176;5.714;2022-11-06T12:55:14;2.50;;;2.30;;
10120;SDS011;5100;45.176;5.714;2022-11-06T13:00:39;2.70;;;2.50;;
10120;SDS011;5100;45.176;5.714;2022-11-06T13:11:47;2.50;;;2.30;;
10120;SDS011;5100;45.176;5.714;2022-11-06T13:17:27;2.23;;;2.03;;
10120;SDS011;5100;45.176;5.714;2022-11-06T13:20:09;2.60;;;2.40;;
10120;SDS011;5100;45.176;5.714;2022-11-06T13:22:44;2.80;;;2.47;;
10120;SDS011;5100;45.176;5.714;2022-11-06T13:25:25;2.47;;;2.27;;
10120;SDS011;5100;45.176;5.714;2022-11-06T13:27:58;4.43;;;2.80;;
10120;SDS011;5100;45.176;5.714;2022-11-06T13:30:46;1.93;;;1.73;;
10120;SDS011;5100;45.176;5.714;2022-11-06T13:33:15;2.30;;;2.10;;
10120;SDS011;5100;45.176;5.714;2022-11-06T13:36:00;2.33;;;2.10;;
10120;SDS011;5100;45.176;5.714;2022-11-06T13:38:35;2.33;;;2.13;;
10120;SDS011;5100;45.176;5.714;2022-11-06T13:41:11;2.87;;;2.20;;
10120;SDS011;5100;45.176;5.714;2022-11-06T13:43:47;2.20;;;2.00;;
10120;SDS011;5100;45.176;5.714;2022-11-06T13:46:34;2.87;;;2.47;;
10120;SDS011;5100;45.176;5.714;2022-11-06T14:04:11;2.23;;;1.87;;
10120;SDS011;5100;45.176;5.714;2022-11-06T14:06:41;2.20;;;2.00;;
10120;SDS011;5100;45.176;5.714;2022-11-06T14:09:10;2.00;;;1.77;;
10120;SDS011;5100;45.176;5.714;2022-11-06T14:11:44;2.07;;;1.80;;
10120;SDS011;5100;45.176;5.714;2022-11-06T14:17:07;3.87;;;2.07;;
10120;SDS011;5100;45.176;5.714;2022-11-06T14:19:42;3.53;;;1.93;;
10120;SDS011;5100;45.176;5.714;2022-11-06T14:22:36;1.90;;;1.73;;
10120;SDS011;5100;45.176;5.714;2022-11-06T14:32:55;2.30;;;2.10;;
10120;SDS011;5100;45.176;5.714;2022-11-06T14:40:35;2.15;;;1.95;;
10120;SDS011;5100;45.176;5.714;2022-11-06T14:45:56;1.90;;;1.70;;
10120;SDS011;5100;45.176;5.714;2022-11-06T14:48:29;2.10;;;1.90;;
10120;SDS011;5100;45.176;5.714;2022-11-06T14:50:59;2.15;;;1.95;;
10120;SDS011;5100;45.176;5.714;2022-11-06T14:53:30;3.85;;;2.00;;
10120;SDS011;5100;45.176;5.714;2022-11-06T14:56:22;2.62;;;2.40;;
10120;SDS011;5100;45.176;5.714;2022-11-06T15:04:52;3.53;;;1.80;;
10120;SDS011;5100;45.176;5.714;2022-11-06T15:08:05;3.35;;;2.12;;
10120;SDS011;5100;45.176;5.714;2022-11-06T15:15:41;2.05;;;1.95;;
10120;SDS011;5100;45.176;5.714;2022-11-06T15:18:10;2.33;;;2.05;;
10120;SDS011;5100;45.176;5.714;2022-11-06T15:20:39;2.42;;;1.90;;
10120;SDS011;5100;45.176;5.714;2022-11-06T15:23:06;2.70;;;2.40;;
10120;SDS011;5100;45.176;5.714;2022-11-06T15:25:38;2.60;;;2.40;;
10120;SDS011;5100;45.176;5.714;2022-11-06T15:28:17;2.40;;;2.17;;
10120;SDS011;5100;45.176;5.714;2022-11-06T15:36:21;2.80;;;2.08;;
10120;SDS011;5100;45.176;5.714;2022-11-06T15:38:48;2.50;;;2.30;;
10120;SDS011;5100;45.176;5.714;2022-11-06T15:41:17;2.20;;;2.03;;
10120;SDS011;5100;45.176;5.714;2022-11-06T15:43:49;2.47;;;2.27;;
10120;SDS011;5100;45.176;5.714;2022-11-06T15:46:25;2.80;;;2.60;;
10120;SDS011;5100;45.176;5.714;2022-11-06T15:51:31;3.42;;;2.85;;
10120;SDS011;5100;45.176;5.714;2022-11-06T15:53:57;4.45;;;3.00;;
10120;SDS011;5100;45.176;5.714;2022-11-06T15:56:25;4.12;;;3.30;;
10120;SDS011;5100;45.176;5.714;2022-11-06T15:59:06;7.37;;;5.20;;
10120;SDS011;5100;45.176;5.714;2022-11-06T16:01:35;10.35;;;6.18;;
10120;SDS011;5100;45.176;5.714;2022-11-06T16:04:03;6.67;;;4.97;;
10120;SDS011;5100;45.176;5.714;2022-11-06T16:06:34;6.47;;;4.57;;
10120;SDS011;5100;45.176;5.714;2022-11-06T16:09:01;8.07;;;5.03;;
10120;SDS011;5100;45.176;5.714;2022-11-06T16:11:29;6.80;;;4.93;;
10120;SDS011;5100;45.176;5.714;2022-11-06T16:13:55;6.67;;;4.20;;
10120;SDS011;5100;45.176;5.714;2022-11-06T16:16:36;6.80;;;4.75;;
10120;SDS011;5100;45.176;5.714;2022-11-06T16:19:06;6.50;;;5.50;;
10120;SDS011;5100;45.176;5.714;2022-11-06T16:21:46;7.37;;;6.20;;
10120;SDS011;5100;45.176;5.714;2022-11-06T16:24:18;7.70;;;5.47;;
10120;SDS011;5100;45.176;5.714;2022-11-06T16:26:45;5.53;;;4.60;;
10120;SDS011;5100;45.176;5.714;2022-11-06T16:29:18;5.70;;;5.18;;
10120;SDS011;5100;45.176;5.714;2022-11-06T16:31:57;6.35;;;4.78;;
10120;SDS011;5100;45.176;5.714;2022-11-06T16:37:02;7.67;;;4.33;;
10120;SDS011;5100;45.176;5.714;2022-11-06T16:39:32;4.37;;;3.97;;
10120;SDS011;5100;45.176;5.714;2022-11-06T16:49:31;5.40;;;4.90;;
10120;SDS011;5100;45.176;5.714;2022-11-06T16:51:58;7.07;;;5.63;;
10120;SDS011;5100;45.176;5.714;2022-11-06T16:54:24;5.87;;;5.27;;
10120;SDS011;5100;45.176;5.714;2022-11-06T16:56:53;6.07;;;5.40;;
10120;SDS011;5100;45.176;5.714;2022-11-06T16:59:21;8.37;;;4.80;;
10120;SDS011;5100;45.176;5.714;2022-11-06T17:01:49;5.20;;;4.70;;
10120;SDS011;5100;45.176;5.714;2022-11-06T17:04:20;6.37;;;5.27;;
10120;SDS011;5100;45.176;5.714;2022-11-06T17:06:49;6.87;;;5.33;;
10120;SDS011;5100;45.176;5.714;2022-11-06T17:11:56;8.10;;;5.40;;
10120;SDS011;5100;45.176;5.714;2022-11-06T17:14:23;5.43;;;4.93;;
10120;SDS011;5100;45.176;5.714;2022-11-06T17:16:51;9.60;;;5.70;;
10120;SDS011;5100;45.176;5.714;2022-11-06T17:19:23;7.07;;;4.90;;
10120;SDS011;5100;45.176;5.714;2022-11-06T17:21:50;7.10;;;5.40;;
10120;SDS011;5100;45.176;5.714;2022-11-06T17:24:16;5.50;;;5.00;;
10120;SDS011;5100;45.176;5.714;2022-11-06T17:26:51;6.70;;;5.53;;
10120;SDS011;5100;45.176;5.714;2022-11-06T17:29:17;6.00;;;5.40;;
10120;SDS011;5100;45.176;5.714;2022-11-06T17:31:44;6.70;;;6.00;;
10120;SDS011;5100;45.176;5.714;2022-11-06T17:34:10;7.10;;;6.03;;
10120;SDS011;5100;45.176;5.714;2022-11-06T17:36:36;6.20;;;5.60;;
10120;SDS011;5100;45.176;5.714;2022-11-06T17:39:03;6.80;;;6.07;;
10120;SDS011;5100;45.176;5.714;2022-11-06T17:41:30;6.97;;;6.00;;
10120;SDS011;5100;45.176;5.714;2022-11-06T17:44:09;6.53;;;5.90;;
10120;SDS011;5100;45.176;5.714;2022-11-06T17:46:41;7.00;;;6.33;;
10120;SDS011;5100;45.176;5.714;2022-11-06T17:49:09;6.40;;;5.80;;
10120;SDS011;5100;45.176;5.714;2022-11-06T17:51:35;7.07;;;6.37;;